createdAt,value
2018-04-26T03:28:58.437Z,991.4
2018-04-26T03:29:18.579Z,991.3
2018-04-26T03:29:38.748Z,991.4
2018-04-26T03:29:58.898Z,991.4
2018-04-26T03:30:19.091Z,991.3
2018-04-26T04:20:29.020Z,991.4
2018-04-26T04:52:57.568Z,991.6
2018-04-26T04:53:17.927Z,991.6
2018-04-26T05:23:07.466Z,991.9
2018-04-26T05:32:44.581Z,992.2
2018-04-26T05:34:57.555Z,992.3
2018-04-26T05:35:17.754Z,992.2
2018-04-26T05:35:37.914Z,992.3
2018-04-26T05:35:58.115Z,992.3
2018-04-26T05:36:18.303Z,992.3
2018-04-26T05:36:38.476Z,992.2
2018-04-26T05:36:58.637Z,992.2
2018-04-26T05:37:18.822Z,992.2
2018-04-26T05:37:38.986Z,992.3
2018-04-26T05:37:59.162Z,992.3
2018-04-26T05:38:19.337Z,992.3
2018-04-26T05:38:39.510Z,992.3
2018-04-26T05:38:59.688Z,992.3
2018-04-26T05:39:19.862Z,992.2
2018-04-26T05:39:40.025Z,992.2
2018-04-26T05:44:52.248Z,992.2
2018-04-26T05:45:12.427Z,992.2
2018-04-26T05:47:14.206Z,992.3
2018-04-26T05:47:34.360Z,992.3
2018-04-26T05:47:54.512Z,992.2
2018-04-26T06:28:01.998Z,992.6
2018-04-26T06:33:37.158Z,992.7
2018-04-26T06:33:57.341Z,992.7
2018-04-26T06:34:17.538Z,992.7
2018-04-26T06:34:37.723Z,992.7
2018-04-26T06:35:41.691Z,992.6
2018-04-26T06:36:01.981Z,992.7
2018-04-26T06:36:22.151Z,992.7
2018-04-26T06:36:42.354Z,992.7
2018-04-26T06:37:02.523Z,992.7
2018-04-26T06:37:22.718Z,992.6
2018-04-26T06:37:42.890Z,992.6
2018-04-26T06:38:03.051Z,992.6
2018-04-26T06:38:23.221Z,992.6
2018-04-26T06:38:43.415Z,992.6
2018-04-26T06:39:03.905Z,992.6
2018-04-26T06:39:24.102Z,992.5
2018-04-26T06:39:44.448Z,992.5
2018-04-26T06:40:04.606Z,992.5
2018-04-26T06:40:24.863Z,992.5
2018-04-26T06:40:45.040Z,992.5
2018-04-26T06:42:47.669Z,992.5
2018-04-26T06:43:07.874Z,992.5
2018-04-26T06:43:28.074Z,992.5
2018-04-26T06:43:48.195Z,992.5
2018-04-26T06:44:08.402Z,992.5
2018-04-26T06:44:28.601Z,992.5
2018-04-26T06:44:48.868Z,992.5
2018-04-26T06:45:09.115Z,992.5
2018-04-26T06:45:29.281Z,992.5
2018-04-26T06:45:49.408Z,992.5
2018-04-26T06:46:33.598Z,992.5
2018-04-26T06:46:53.830Z,992.5
2018-04-26T06:47:14.018Z,992.5
2018-04-26T06:48:49.396Z,992.5
2018-04-26T06:49:09.576Z,992.5
2018-04-26T06:50:05.789Z,992.5
2018-04-26T06:50:26.001Z,992.5
2018-04-26T06:50:46.157Z,992.5
2018-04-26T06:51:06.341Z,992.5
2018-04-26T06:51:26.563Z,992.5
2018-04-26T06:51:46.755Z,992.5
2018-04-26T06:52:06.932Z,992.5
2018-04-26T06:52:27.110Z,992.5
2018-04-26T06:52:47.305Z,992.5
2018-04-26T06:53:07.490Z,992.5
2018-04-26T06:53:27.755Z,992.5
2018-04-26T06:53:47.883Z,992.5
2018-04-26T06:56:01.484Z,992.6
2018-04-26T06:56:21.633Z,992.5
2018-04-26T06:56:53.137Z,992.6
2018-04-26T06:57:13.318Z,992.6
2018-04-26T06:57:44.722Z,992.6
2018-04-26T06:58:04.941Z,992.6
2018-04-26T06:58:36.409Z,992.6
2018-04-26T06:58:56.621Z,992.6
2018-04-26T07:00:00.270Z,992.7
2018-04-26T07:00:20.563Z,992.7
2018-04-26T07:00:40.767Z,992.7
2018-04-26T07:01:01.033Z,992.7
2018-04-26T07:01:21.257Z,992.7
2018-04-26T07:01:41.503Z,992.7
2018-04-26T07:02:01.741Z,992.7
2018-04-26T07:02:22.010Z,992.7
2018-04-26T07:02:42.344Z,992.7
2018-04-26T07:03:02.582Z,992.7
2018-04-26T07:03:22.949Z,992.7
2018-04-26T07:03:43.169Z,992.7
2018-04-26T07:04:03.379Z,992.7
2018-04-26T07:04:23.614Z,992.7
2018-04-26T07:04:43.981Z,992.7
2018-04-26T07:05:04.204Z,992.6
2018-04-26T07:05:24.488Z,992.7
2018-04-26T07:05:44.799Z,992.7
2018-04-26T07:06:05.013Z,992.7
2018-04-26T07:06:25.294Z,992.7
2018-04-26T07:06:45.581Z,992.7
2018-04-26T07:07:05.795Z,992.7
2018-04-26T07:07:25.984Z,992.7
2018-04-26T07:07:46.225Z,992.7
2018-04-26T07:08:06.508Z,992.7
2018-04-26T07:08:26.715Z,992.7
2018-04-26T07:08:46.998Z,992.7
2018-04-26T07:09:07.225Z,992.7
2018-04-26T07:09:27.471Z,992.7
2018-04-26T07:09:47.682Z,992.7
2018-04-26T07:10:07.905Z,992.7
2018-04-26T07:10:28.138Z,992.7
2018-04-26T07:10:48.355Z,992.7
2018-04-26T07:11:08.550Z,992.7
2018-04-26T07:11:28.767Z,992.7
2018-04-26T07:11:49.083Z,992.8
2018-04-26T07:12:09.352Z,992.8
2018-04-26T07:12:29.508Z,992.8
2018-04-26T07:12:49.857Z,992.8
2018-04-26T07:13:10.139Z,992.8
2018-04-26T07:13:30.404Z,992.8
2018-04-26T07:13:50.601Z,992.8
2018-04-26T07:14:10.817Z,992.8
2018-04-26T07:14:31.035Z,992.8
2018-04-26T07:14:51.277Z,992.8
2018-04-26T07:15:11.521Z,992.8
2018-04-26T07:15:31.758Z,992.8
2018-04-26T07:15:51.945Z,992.8
2018-04-26T07:16:12.193Z,992.8
2018-04-26T07:16:32.455Z,992.8
2018-04-26T07:16:52.737Z,992.8
2018-04-26T07:17:12.980Z,992.8
2018-04-26T07:17:33.240Z,992.8
2018-04-26T07:17:53.519Z,992.8
2018-04-26T07:18:13.752Z,992.9
2018-04-26T07:18:34.036Z,992.9
2018-04-26T07:18:54.300Z,992.9
2018-04-26T07:19:14.510Z,992.9
2018-04-26T07:19:34.739Z,992.9
2018-04-26T07:19:54.941Z,992.8
2018-04-26T07:20:15.247Z,992.8
2018-04-26T07:20:35.458Z,992.8
2018-04-26T07:20:55.611Z,992.8
2018-04-26T07:21:15.864Z,992.8
2018-04-26T07:21:36.057Z,992.8
2018-04-26T07:21:56.351Z,992.7
2018-04-26T07:22:16.625Z,992.7
2018-04-26T07:22:36.914Z,992.7
2018-04-26T07:22:57.123Z,992.7
2018-04-26T07:23:17.402Z,992.7
2018-04-26T07:23:37.640Z,992.7
2018-04-26T07:23:57.866Z,992.7
2018-04-26T07:24:18.167Z,992.7
2018-04-26T07:24:38.535Z,992.7
2018-04-26T07:24:58.796Z,992.7
2018-04-26T07:25:19.059Z,992.7
2018-04-26T07:25:39.325Z,992.7
2018-04-26T07:25:59.597Z,992.7
2018-04-26T07:26:19.809Z,992.7
2018-04-26T07:26:40.000Z,992.7
2018-04-26T07:27:00.266Z,992.8
2018-04-26T07:27:20.536Z,992.7
2018-04-26T07:27:40.755Z,992.8
2018-04-26T07:28:00.984Z,992.7
2018-04-26T07:28:21.206Z,992.8
2018-04-26T07:28:41.499Z,992.7
2018-04-26T07:29:01.638Z,992.8
2018-04-26T07:29:21.879Z,992.8
2018-04-26T07:29:42.121Z,992.8
2018-04-26T07:30:02.397Z,992.8
2018-04-26T07:30:22.591Z,992.8
2018-04-26T07:30:42.868Z,992.8
2018-04-26T07:31:03.190Z,992.8
2018-04-26T07:31:23.440Z,992.8
2018-04-26T07:31:43.734Z,992.8
2018-04-26T07:32:04.068Z,992.8
2018-04-26T07:32:24.252Z,992.8
2018-04-26T07:32:44.500Z,992.8
2018-04-26T07:33:04.733Z,992.8
2018-04-26T07:33:24.945Z,992.8
2018-04-26T07:33:45.264Z,992.8
2018-04-26T07:34:05.692Z,992.8
2018-04-26T07:34:25.995Z,992.8
2018-04-26T07:34:46.420Z,992.8
2018-04-26T07:35:06.718Z,992.8
2018-04-26T07:35:27.001Z,992.8
2018-04-26T07:35:47.619Z,992.8
2018-04-26T07:36:08.055Z,992.7
2018-04-26T07:36:28.275Z,992.7
2018-04-26T07:36:48.557Z,992.7
2018-04-26T07:37:08.780Z,992.7
2018-04-26T07:37:29.014Z,992.7
2018-04-26T07:37:49.227Z,992.7
2018-04-26T07:38:09.429Z,992.7
2018-04-26T07:38:29.602Z,992.7
2018-04-26T07:38:49.804Z,992.7
2018-04-26T07:39:10.022Z,992.7
2018-04-26T07:39:30.222Z,992.7
2018-04-26T07:39:50.444Z,992.7
2018-04-26T07:40:10.658Z,992.7
2018-04-26T07:40:30.812Z,992.7
2018-04-26T07:40:51.057Z,992.6
2018-04-26T07:41:11.348Z,992.6
2018-04-26T07:41:31.778Z,992.6
2018-04-26T07:41:52.090Z,992.7
2018-04-26T07:42:12.242Z,992.6
2018-04-26T07:42:32.474Z,992.7
2018-04-26T07:42:52.687Z,992.7
2018-04-26T07:43:12.979Z,992.7
2018-04-26T07:43:33.208Z,992.6
2018-04-26T07:43:53.399Z,992.6
2018-04-26T07:44:13.571Z,992.7
2018-04-26T07:44:33.762Z,992.7
2018-04-26T07:44:53.942Z,992.7
2018-04-26T07:45:14.148Z,992.7
2018-04-26T07:45:34.330Z,992.7
2018-04-26T07:45:54.481Z,992.7
2018-04-26T07:46:14.665Z,992.7
2018-04-26T07:46:34.944Z,992.7
2018-04-26T07:46:55.130Z,992.7
2018-04-26T07:47:15.327Z,992.7
2018-04-26T07:47:35.492Z,992.8
2018-04-26T07:47:55.678Z,992.8
2018-04-26T07:48:15.849Z,992.8
2018-04-26T07:48:36.027Z,992.7
2018-04-26T07:48:56.230Z,992.7
2018-04-26T07:49:16.413Z,992.7
2018-04-26T07:49:36.561Z,992.7
2018-04-26T07:49:56.732Z,992.7
2018-04-26T07:50:16.883Z,992.7
2018-04-26T07:50:37.057Z,992.6
2018-04-26T07:50:57.221Z,992.7
2018-04-26T07:51:17.400Z,992.8
2018-04-26T07:51:37.575Z,992.7
2018-04-26T07:51:57.772Z,992.7
2018-04-26T07:52:17.941Z,992.7
2018-04-26T07:52:38.124Z,992.7
2018-04-26T07:52:58.337Z,992.7
2018-04-26T07:53:18.538Z,992.6
2018-04-26T07:53:38.823Z,992.6
2018-04-26T07:53:59.027Z,992.6
2018-04-26T07:54:19.223Z,992.7
2018-04-26T07:54:39.436Z,992.7
2018-04-26T07:54:59.639Z,992.7
2018-04-26T07:55:19.909Z,992.7
2018-04-26T07:55:40.191Z,992.7
2018-04-26T07:56:00.598Z,992.7
2018-04-26T07:56:20.809Z,992.7
2018-04-26T07:56:41.358Z,992.7
2018-04-26T07:57:01.561Z,992.8
2018-04-26T07:57:21.967Z,992.8
2018-04-26T07:57:42.168Z,992.8
2018-04-26T07:58:02.340Z,992.8
2018-04-26T07:58:22.521Z,992.8
2018-04-26T07:58:42.701Z,992.8
2018-04-26T07:59:02.867Z,992.8
2018-04-26T07:59:23.190Z,992.8
2018-04-26T07:59:43.395Z,992.8
2018-04-26T08:00:03.573Z,992.8
2018-04-26T08:00:23.729Z,992.8
2018-04-26T08:00:43.936Z,992.8
2018-04-26T08:01:04.125Z,992.9
2018-04-26T08:01:24.374Z,992.8
2018-04-26T08:01:44.635Z,992.8
2018-04-26T08:02:04.714Z,992.9
2018-04-26T08:02:24.882Z,992.9
2018-04-26T08:02:45.144Z,992.8
2018-04-26T08:03:05.303Z,992.8
2018-04-26T08:03:25.508Z,992.8
2018-04-26T08:03:45.677Z,992.8
2018-04-26T08:04:05.885Z,992.8
2018-04-26T08:04:26.033Z,992.8
2018-04-26T08:04:46.520Z,992.8
2018-04-26T08:05:06.984Z,992.9
2018-04-26T08:05:27.252Z,992.9
2018-04-26T08:05:47.446Z,992.9
2018-04-26T08:06:07.628Z,992.9
2018-04-26T08:06:27.798Z,992.9
2018-04-26T08:06:47.972Z,993
2018-04-26T08:07:08.154Z,993
2018-04-26T08:07:29.146Z,992.9
2018-04-26T08:07:49.321Z,992.9
2018-04-26T08:08:09.520Z,992.9
2018-04-26T08:08:29.701Z,992.8
2018-04-26T08:08:49.865Z,992.9
2018-04-26T08:09:10.041Z,992.8
2018-04-26T08:09:30.208Z,992.9
2018-04-26T08:09:50.395Z,992.9
2018-04-26T08:10:10.568Z,992.9
2018-04-26T08:10:30.733Z,992.8
2018-04-26T08:10:50.925Z,992.8
2018-04-26T08:11:11.087Z,992.8
2018-04-26T08:11:31.245Z,992.9
2018-04-26T08:11:51.428Z,992.9
2018-04-26T08:12:11.608Z,992.9
2018-04-26T08:12:31.803Z,993
2018-04-26T08:12:51.976Z,992.9
2018-04-26T08:13:12.149Z,992.9
2018-04-26T08:13:32.330Z,992.9
2018-04-26T08:13:52.508Z,993
2018-04-26T08:14:12.722Z,993
2018-04-26T08:14:32.894Z,993
2018-04-26T08:14:53.069Z,992.9
2018-04-26T08:15:13.269Z,992.9
2018-04-26T08:15:33.451Z,992.9
